Southern Lake Huron: Past 24 Hour Conditions

 

Toronto Pearson Int'l Airport

12:00 AM EDT 24 July 2014
This table is a summary of hourly weather conditions for the past 24 hours.
Date / Time
(EDT)
Wind(knots) Conditions Visibility(km) Pressure(kPa) Air tempC) Relative humidity(%) Dew pointC) Humidex
24 July 2014
0:00 NNW 11 Clear 24 101.7 16 66 10 *
23 July 2014
23:00 NW 7 Clear 24 101.7 17 65 11 *
22:00 NNW 9 Mainly Clear 24 101.6 18 61 11 *
21:00 NNW 12 Mainly Clear 24 101.6 19 63 12 *
20:00 NNW 11 Mainly Sunny 24 101.6 19 65 13 *
19:00 N 14 Cloudy 24 101.5 20 64 13 *
18:00 NNW 17 gust 22 Mostly Cloudy 24 101.5 20 64 13 *
17:00 NNW 17 gust 23 Mostly Cloudy 24 101.5 20 64 13 *
16:00 NNW 17 Mostly Cloudy 24 101.5 21 63 14 *
15:00 NNW 17 gust 22 Cloudy 24 101.5 21 63 14 *
14:00 NNW 15 gust 21 Cloudy 24 101.4 20 65 14 *
13:00 NW 17 gust 23 Partly Cloudy 24 101.4 21 63 14 25
12:00 NNW 12 gust 21 Partly Cloudy 24 101.3 22 64 15 25
11:00 N 13 gust 19 Cloudy 24 101.3 20 72 15 *
10:00 NNW 13 gust 18 Cloudy 24 101.2 20 76 16 25
9:00 NNW 19 gust 25 Mostly Cloudy 24 101.2 21 73 16 26
8:00 NW 12 Mostly Cloudy 24 101.1 23 76 19 30
7:00 W 7 Cloudy 13 101.1 24 84 21 32
6:00 WSW 7 Cloudy 16 101.1 23 85 21 32
5:00 W 7 Partly Cloudy 24 101.0 24 83 21 31
4:00 WSW 11 Mainly Clear 24 101.0 24 82 21 32
3:00 WSW 14 Partly Cloudy 24 101.1 24 78 20 32
2:00 SSW 10 Thunderstorm 24 101.1 24 79 20 31
1:00 SSW 10 Partly Cloudy 24 101.3 25 70 19 32
0:00 SE 5 Thunderstorm with light rainshowers 16 101.3 26 67 19 32
 
Map of Great Lakes - Lake Erie and Lake Ontario marine weather areas Egbert N Huron - 45003 W Erie - 45005 S Huron - 45008 Lake Ontario - 45012 Port Stanley - 45132 Prince Edward Point - 45135 Georgian Bay - 45137 Grimsby - 45139 Port Colborne - 45142 South Georgian Bay - 45143 Lake St Clair - 45147 South Lake Huron - 45149 Lake Simcoe - 45151 Lake Nipissing - 45152 North Channel - 45154 Ajax - 45159 Sault Ste. Marie Airport Greater Sudbury Airport North Bay Airport Gore Bay-Manitoulin Airport Great Duck Island Brockville Grenadier Island Kemptville Kingston Airport Collingwood Lagoon City Muskoka Airport Parry Sound Harbour Lake Simcoe Regional Airport Wiarton Airport Goderich Sarnia Chris Hadfield Airport Tobermory Harrow AAFC Port Weller St. Catharines Airport Southeast Shoal Vineland Station Welland-Pelham Windsor Airport Burlington Lift Bridge Cobourg Hamilton Munro Int'l Airport Oshawa Municipal Airport Point Petre Toronto City Centre Airport Toronto Pearson Int'l Airport CFB Trenton Peterborough Municipal Airport Killarney Western Islands CFB Borden Cove Island Long Point Port Colborne Erieau Point Pelee Toronto Buttonville Municipal Airport
Legend: buoyBuoy land stationLand Station » US Marine Weather